This is the latest recevied weather packets stored in our database for station/object KE8WMS. If no packets are shown the sender has not sent any weather packets the latest 10 day(s).
| Time | Temp. | Humidity | Pressure | Rain* | Wind** | Luminosity | Snow |
|---|---|---|---|---|---|---|---|
| 1778256037 | 15° C | 71% | 1009.2 hPa | 0 mm | - | 433 W/m² | - |
| 1778255734 | 15.56° C | 68% | 1009.2 hPa | 0 mm | - | 297 W/m² | - |
| 1778255431 | 15° C | 69% | 1009.5 hPa | 0 mm | - | 673 W/m² | - |
| 1778255128 | 15° C | 69% | 1009.3 hPa | 0 mm | - | 695 W/m² | - |
| 1778254825 | 14.44° C | 72% | 1009.2 hPa | 0 mm | - | 331 W/m² | - |
| 1778254522 | 13.89° C | 72% | 1009.4 hPa | 0 mm | - | 726 W/m² | - |
| 1778254218 | 15° C | 70% | 1009.1 hPa | 0 mm | - | 452 W/m² | - |
| 1778253915 | 14.44° C | 73% | 1009.5 hPa | 0 mm | - | 574 W/m² | - |
| 1778253611 | 13.89° C | 72% | 1009.5 hPa | 0 mm | - | 577 W/m² | - |
| 1778253308 | 13.33° C | 74% | 1009.5 hPa | 0 mm | - | 704 W/m² | - |
| 1778253004 | 13.89° C | 73% | 1009.5 hPa | 0 mm | - | 645 W/m² | - |
| 1778252702 | 13.89° C | 72% | 1009.6 hPa | 0 mm | - | 632 W/m² | - |
| 1778252396 | 13.33° C | 75% | 1009.6 hPa | 0 mm | - | 609 W/m² | - |
| 1778252094 | 12.78° C | 77% | 1009.4 hPa | 0 mm | - | 572 W/m² | - |
| 1778251790 | 12.78° C | 78% | 1009.5 hPa | 0 mm | - | 626 W/m² | - |
| 1778251488 | 12.78° C | 78% | 1009.6 hPa | 0 mm | - | 210 W/m² | - |
| 1778251186 | 12.78° C | 79% | 1009.6 hPa | 0 mm | - | 600 W/m² | - |
| 1778250883 | 12.22° C | 78% | 1009.7 hPa | 0 mm | - | 630 W/m² | - |
| 1778250579 | 12.22° C | 80% | 1009.6 hPa | 0 mm | - | 197 W/m² | - |
| 1778250277 | 12.78° C | 80% | 1009.7 hPa | 0 mm | - | 315 W/m² | - |
| 1778249973 | 11.67° C | 82% | 1009.6 hPa | 0 mm | - | 542 W/m² | - |
| 1778249669 | 11.67° C | 82% | 1009.7 hPa | 0 mm | - | 552 W/m² | - |
| 1778249367 | 11.67° C | 83% | 1009.7 hPa | 0 mm | - | 340 W/m² | - |
| 1778249064 | 11.11° C | 83% | 1009.8 hPa | 0 mm | - | 456 W/m² | - |
| 1778248760 | 11.11° C | 86% | 1009.7 hPa | 0 mm | - | 363 W/m² | - |
* Rain latest hour (hover to see other rain measurements)
** Current wind speed in m/s (hover to see current wind gust speed)